Kakushu Maru — JG5688 — position and weather

sailwx.info

Track history (hours):
 
Tides and Currents Weather Stations Pressure Air Temp Water Temp Dewpoint Dewpoint Depression Visibility Wind Speed Wind Dir Waves Ship Positions

Kakushu Maru

Last reported at 2016-Jun-26 15:33 UTC. Time now 2016-Jun-30 10:32 UTC.
Position N 36°44' E 141°03'.

Length 105 m; draft 6.4 m.

Type: Tanker. MMSI: 431101016.

Date/timePositionNaut miles runAvg speedWind from/ knotsBaromVisibWave heightAir tempDewpointWater temp
2016-Jun-26 15:33N 36°44' E 141°03'1514.0
2016-Jun-26 14:30N 36°30' E 140°56'1313.9
2016-Jun-26 13:33N 36°18' E 140°51'1413.9
2016-Jun-26 12:33N 36°05' E 140°45'1111.0
2016-Jun-26 11:33N 35°55' E 140°41'0 0.0
2016-Jun-26 10:31N 35°55' E 140°41'0 0.0
2016-Jun-26 03:33N 35°55' E 140°41'8 7.4
2016-Jun-26 02:26N 36°02' E 140°44'9 9.7
2016-Jun-26 01:33N 36°10' E 140°48'1110.3
2016-Jun-26 00:29N 36°21' E 140°53'1411.9
2016-Jun-25 23:18N 36°34' E 140°58'36 1.0
2016-Jun-24 12:30N 36°00' E 140°44'6 0.7
2016-Jun-24 04:22N 35°55' E 140°41'4210.8
2016-Jun-24 00:30N 36°34' E 140°58'  
Track history (hours):
 
Tides and Currents Weather Stations Pressure Air Temp Water Temp Dewpoint Dewpoint Depression Visibility Wind Speed Wind Dir Waves Ship Positions

Kakushu Maru

Last reported at 2016-Jun-26 15:33 UTC. Time now 2016-Jun-30 10:32 UTC.
Position N 36°44' E 141°03'.

Length 105 m; draft 6.4 m.

Type: Tanker. MMSI: 431101016.

Date/timePositionNaut miles runAvg speedWind from/ knotsBaromVisibWave heightAir tempDewpointWater temp
2016-Jun-26 15:33N 36°44' E 141°03'1514.0
2016-Jun-26 14:30N 36°30' E 140°56'1313.9
2016-Jun-26 13:33N 36°18' E 140°51'1413.9
2016-Jun-26 12:33N 36°05' E 140°45'1111.0
2016-Jun-26 11:33N 35°55' E 140°41'0 0.0
2016-Jun-26 10:31N 35°55' E 140°41'0 0.0
2016-Jun-26 03:33N 35°55' E 140°41'8 7.4
2016-Jun-26 02:26N 36°02' E 140°44'9 9.7
2016-Jun-26 01:33N 36°10' E 140°48'1110.3
2016-Jun-26 00:29N 36°21' E 140°53'1411.9
2016-Jun-25 23:18N 36°34' E 140°58'36 1.0
2016-Jun-24 12:30N 36°00' E 140°44'6 0.7
2016-Jun-24 04:22N 35°55' E 140°41'4210.8
2016-Jun-24 00:30N 36°34' E 140°58'  

Dump ship's entire track history